logo dgac
Miércoles 22 de Mayo del 2019
Buscar por aerodromo o helipuerto
Ingrese nombre de aeródromo, localidad o designador OACI:
TAF: TAF SCVM 220415Z 2206/2306 14005KT CAVOK TX17/2218Z TN04/2211Z TEMPO 2208/2212 00000KT 3000 BR NSC BECMG 2216/2218 28013KT TEMPO 2218/2222 23010KT BECMG 2301/2303 14004KT
TAF del 22/05/2019 a las 04:15 UTC
Período de validez: desde el 22 a las 06:00 UTC hasta el 23 a las 06:00 UTC
Viento: dirección 140 grados, velocidad 5 nudos
Visibilidad: 10 km o más,
    sin nubes bajo los 5.000 pies o bajo del MSA (Mínimo de Seguridad del Aeródromo),
    sin cumulonimbus, y sin fenómenos de tiempo significativo en el aeródromo o alrededores
Temperatura máxima: 17ºC el 22 a las 18:00 UTC
Temperatura mínima: 4ºC el 22 a las 11:00 UTC
Se espera en forma temporal entre las 08:00 UTC del 22 y las 12:00 UTC del 22:
Visibilidad: 3000 metros
Neblina
Sin nubes bajo los 5000 pies o bajo del MSA (Mínimo de Seguridad del Aeródromo)
Se espera un cambio entre las 16:00 UTC del 22 y las 18:00 UTC del 22, :
Viento: dirección 280 grados, velocidad 13 nudos
Se espera en forma temporal entre las 18:00 UTC del 22 y las 22:00 UTC del 22:
Viento: dirección 230 grados, velocidad 10 nudos
Se espera un cambio entre las 01:00 UTC del 23 y las 03:00 UTC del 23, :
Viento: dirección 140 grados, velocidad 4 nudos